sensor_id;sensor_type;location;lat;lon;timestamp;P1;durP1;ratioP1;P2;durP2;ratioP2
84527;SDS011;74768;51.152;6.196;2024-03-17T00:00:17;21.25;;;13.55;;
84527;SDS011;74768;51.152;6.196;2024-03-17T00:02:43;23.20;;;13.55;;
84527;SDS011;74768;51.152;6.196;2024-03-17T00:05:09;19.60;;;11.93;;
84527;SDS011;74768;51.152;6.196;2024-03-17T00:07:34;20.60;;;12.07;;
84527;SDS011;74768;51.152;6.196;2024-03-17T00:10:00;23.20;;;12.55;;
84527;SDS011;74768;51.152;6.196;2024-03-17T00:12:25;19.60;;;13.60;;
84527;SDS011;74768;51.152;6.196;2024-03-17T00:14:51;22.60;;;13.85;;
84527;SDS011;74768;51.152;6.196;2024-03-17T00:17:16;20.35;;;12.95;;
84527;SDS011;74768;51.152;6.196;2024-03-17T00:19:42;21.92;;;13.25;;
84527;SDS011;74768;51.152;6.196;2024-03-17T00:22:07;21.05;;;13.93;;
84527;SDS011;74768;51.152;6.196;2024-03-17T00:24:34;19.63;;;12.13;;
84527;SDS011;74768;51.152;6.196;2024-03-17T00:27:03;20.92;;;12.70;;
84527;SDS011;74768;51.152;6.196;2024-03-17T00:29:28;19.23;;;11.93;;
84527;SDS011;74768;51.152;6.196;2024-03-17T00:31:54;20.48;;;12.55;;
84527;SDS011;74768;51.152;6.196;2024-03-17T00:34:20;18.85;;;11.95;;
84527;SDS011;74768;51.152;6.196;2024-03-17T00:36:45;22.55;;;12.52;;
84527;SDS011;74768;51.152;6.196;2024-03-17T00:39:11;17.52;;;11.40;;
84527;SDS011;74768;51.152;6.196;2024-03-17T00:41:36;23.23;;;13.48;;
84527;SDS011;74768;51.152;6.196;2024-03-17T00:44:02;21.07;;;13.87;;
84527;SDS011;74768;51.152;6.196;2024-03-17T00:46:28;24.13;;;14.93;;
84527;SDS011;74768;51.152;6.196;2024-03-17T00:48:53;28.67;;;16.67;;
84527;SDS011;74768;51.152;6.196;2024-03-17T00:51:19;25.58;;;13.70;;
84527;SDS011;74768;51.152;6.196;2024-03-17T00:53:44;26.35;;;15.02;;
84527;SDS011;74768;51.152;6.196;2024-03-17T00:56:09;26.77;;;12.90;;
84527;SDS011;74768;51.152;6.196;2024-03-17T00:58:35;27.23;;;14.57;;
84527;SDS011;74768;51.152;6.196;2024-03-17T01:01:00;34.88;;;18.70;;
84527;SDS011;74768;51.152;6.196;2024-03-17T01:03:26;31.52;;;14.93;;
84527;SDS011;74768;51.152;6.196;2024-03-17T01:05:52;29.40;;;14.90;;
84527;SDS011;74768;51.152;6.196;2024-03-17T01:08:18;28.33;;;15.20;;
84527;SDS011;74768;51.152;6.196;2024-03-17T01:10:44;29.88;;;15.90;;
84527;SDS011;74768;51.152;6.196;2024-03-17T01:13:12;24.58;;;14.20;;
84527;SDS011;74768;51.152;6.196;2024-03-17T01:15:38;24.93;;;14.17;;
84527;SDS011;74768;51.152;6.196;2024-03-17T01:18:04;20.27;;;13.50;;
84527;SDS011;74768;51.152;6.196;2024-03-17T01:20:34;24.35;;;11.73;;
84527;SDS011;74768;51.152;6.196;2024-03-17T01:23:02;19.83;;;12.90;;
84527;SDS011;74768;51.152;6.196;2024-03-17T01:25:28;23.48;;;13.30;;
84527;SDS011;74768;51.152;6.196;2024-03-17T01:27:54;19.88;;;11.57;;
84527;SDS011;74768;51.152;6.196;2024-03-17T01:30:21;23.67;;;12.48;;
84527;SDS011;74768;51.152;6.196;2024-03-17T01:32:46;20.55;;;12.20;;
84527;SDS011;74768;51.152;6.196;2024-03-17T01:35:11;18.13;;;10.48;;
84527;SDS011;74768;51.152;6.196;2024-03-17T01:37:37;20.30;;;12.98;;
84527;SDS011;74768;51.152;6.196;2024-03-17T01:40:03;20.17;;;11.63;;
84527;SDS011;74768;51.152;6.196;2024-03-17T01:42:38;19.38;;;11.00;;
84527;SDS011;74768;51.152;6.196;2024-03-17T01:47:56;20.10;;;12.35;;
84527;SDS011;74768;51.152;6.196;2024-03-17T01:50:25;21.33;;;12.00;;
84527;SDS011;74768;51.152;6.196;2024-03-17T01:52:54;22.58;;;12.13;;
84527;SDS011;74768;51.152;6.196;2024-03-17T01:55:24;21.33;;;11.75;;
84527;SDS011;74768;51.152;6.196;2024-03-17T01:57:52;19.63;;;10.90;;
84527;SDS011;74768;51.152;6.196;2024-03-17T02:00:17;19.48;;;11.25;;
84527;SDS011;74768;51.152;6.196;2024-03-17T02:02:43;17.88;;;10.68;;
84527;SDS011;74768;51.152;6.196;2024-03-17T02:05:08;20.77;;;11.57;;
84527;SDS011;74768;51.152;6.196;2024-03-17T02:07:35;18.88;;;11.02;;
84527;SDS011;74768;51.152;6.196;2024-03-17T02:10:00;19.60;;;11.82;;
84527;SDS011;74768;51.152;6.196;2024-03-17T02:12:28;21.50;;;11.98;;
84527;SDS011;74768;51.152;6.196;2024-03-17T02:14:55;21.35;;;11.77;;
84527;SDS011;74768;51.152;6.196;2024-03-17T02:17:21;20.80;;;11.52;;
84527;SDS011;74768;51.152;6.196;2024-03-17T02:19:46;23.35;;;12.43;;
84527;SDS011;74768;51.152;6.196;2024-03-17T02:22:15;15.95;;;10.38;;
84527;SDS011;74768;51.152;6.196;2024-03-17T02:24:41;21.48;;;12.05;;
84527;SDS011;74768;51.152;6.196;2024-03-17T02:27:07;21.65;;;9.90;;
84527;SDS011;74768;51.152;6.196;2024-03-17T02:29:33;19.90;;;10.65;;
84527;SDS011;74768;51.152;6.196;2024-03-17T02:31:58;21.63;;;11.52;;
84527;SDS011;74768;51.152;6.196;2024-03-17T02:34:23;32.67;;;17.83;;
84527;SDS011;74768;51.152;6.196;2024-03-17T02:36:49;58.53;;;31.43;;
84527;SDS011;74768;51.152;6.196;2024-03-17T02:39:14;82.10;;;49.22;;
84527;SDS011;74768;51.152;6.196;2024-03-17T02:41:58;107.32;;;56.90;;
84527;SDS011;74768;51.152;6.196;2024-03-17T02:44:24;81.93;;;47.13;;
84527;SDS011;74768;51.152;6.196;2024-03-17T02:46:49;58.43;;;29.13;;
84527;SDS011;74768;51.152;6.196;2024-03-17T02:49:14;47.08;;;22.45;;
84527;SDS011;74768;51.152;6.196;2024-03-17T02:51:43;49.22;;;26.13;;
84527;SDS011;74768;51.152;6.196;2024-03-17T02:54:08;40.30;;;20.60;;
84527;SDS011;74768;51.152;6.196;2024-03-17T02:56:34;28.17;;;15.80;;
84527;SDS011;74768;51.152;6.196;2024-03-17T02:58:59;26.95;;;13.30;;
84527;SDS011;74768;51.152;6.196;2024-03-17T03:01:24;23.33;;;12.43;;
84527;SDS011;74768;51.152;6.196;2024-03-17T03:03:50;25.77;;;13.10;;
84527;SDS011;74768;51.152;6.196;2024-03-17T03:06:15;24.60;;;12.97;;
84527;SDS011;74768;51.152;6.196;2024-03-17T03:08:44;18.00;;;11.55;;
84527;SDS011;74768;51.152;6.196;2024-03-17T03:11:13;20.88;;;10.48;;
84527;SDS011;74768;51.152;6.196;2024-03-17T03:13:39;19.10;;;10.30;;
84527;SDS011;74768;51.152;6.196;2024-03-17T03:16:06;19.20;;;10.98;;
84527;SDS011;74768;51.152;6.196;2024-03-17T03:18:33;18.98;;;11.40;;
84527;SDS011;74768;51.152;6.196;2024-03-17T03:20:58;21.60;;;10.68;;
84527;SDS011;74768;51.152;6.196;2024-03-17T03:23:24;20.23;;;10.63;;
84527;SDS011;74768;51.152;6.196;2024-03-17T03:25:54;20.15;;;10.13;;
84527;SDS011;74768;51.152;6.196;2024-03-17T03:28:20;19.98;;;10.18;;
84527;SDS011;74768;51.152;6.196;2024-03-17T03:30:46;27.63;;;10.93;;
84527;SDS011;74768;51.152;6.196;2024-03-17T03:33:11;18.47;;;9.63;;
84527;SDS011;74768;51.152;6.196;2024-03-17T03:35:37;15.75;;;9.38;;
84527;SDS011;74768;51.152;6.196;2024-03-17T03:38:02;18.88;;;10.73;;
84527;SDS011;74768;51.152;6.196;2024-03-17T03:40:27;15.98;;;9.02;;
84527;SDS011;74768;51.152;6.196;2024-03-17T03:42:53;16.27;;;9.82;;
84527;SDS011;74768;51.152;6.196;2024-03-17T03:45:18;21.27;;;10.55;;
84527;SDS011;74768;51.152;6.196;2024-03-17T03:47:45;17.70;;;8.77;;
84527;SDS011;74768;51.152;6.196;2024-03-17T03:50:10;17.98;;;9.02;;
84527;SDS011;74768;51.152;6.196;2024-03-17T03:52:36;21.50;;;10.20;;
84527;SDS011;74768;51.152;6.196;2024-03-17T03:55:03;15.15;;;9.40;;
84527;SDS011;74768;51.152;6.196;2024-03-17T03:57:29;16.13;;;8.77;;
84527;SDS011;74768;51.152;6.196;2024-03-17T03:59:55;17.58;;;9.38;;
84527;SDS011;74768;51.152;6.196;2024-03-17T04:02:21;16.67;;;9.27;;
84527;SDS011;74768;51.152;6.196;2024-03-17T04:04:46;16.83;;;9.50;;
84527;SDS011;74768;51.152;6.196;2024-03-17T04:07:12;17.17;;;9.20;;
84527;SDS011;74768;51.152;6.196;2024-03-17T04:09:38;19.95;;;9.52;;
84527;SDS011;74768;51.152;6.196;2024-03-17T04:12:03;13.97;;;8.43;;
84527;SDS011;74768;51.152;6.196;2024-03-17T04:14:28;16.73;;;8.70;;
84527;SDS011;74768;51.152;6.196;2024-03-17T04:16:55;17.80;;;10.15;;
84527;SDS011;74768;51.152;6.196;2024-03-17T04:19:21;15.65;;;8.20;;
84527;SDS011;74768;51.152;6.196;2024-03-17T04:21:46;18.23;;;9.63;;
84527;SDS011;74768;51.152;6.196;2024-03-17T04:24:12;18.92;;;9.48;;
84527;SDS011;74768;51.152;6.196;2024-03-17T04:26:37;17.75;;;10.02;;
84527;SDS011;74768;51.152;6.196;2024-03-17T04:29:03;14.88;;;9.57;;
84527;SDS011;74768;51.152;6.196;2024-03-17T04:31:30;17.48;;;9.25;;
84527;SDS011;74768;51.152;6.196;2024-03-17T04:33:56;16.50;;;9.23;;
84527;SDS011;74768;51.152;6.196;2024-03-17T04:36:21;15.60;;;8.90;;
84527;SDS011;74768;51.152;6.196;2024-03-17T04:38:47;14.13;;;8.50;;
84527;SDS011;74768;51.152;6.196;2024-03-17T04:41:15;17.85;;;8.50;;
84527;SDS011;74768;51.152;6.196;2024-03-17T04:43:41;14.68;;;8.30;;
84527;SDS011;74768;51.152;6.196;2024-03-17T04:46:06;19.70;;;9.15;;
84527;SDS011;74768;51.152;6.196;2024-03-17T04:48:32;16.65;;;9.18;;
84527;SDS011;74768;51.152;6.196;2024-03-17T04:50:58;15.95;;;9.35;;
84527;SDS011;74768;51.152;6.196;2024-03-17T04:53:25;15.93;;;9.88;;
84527;SDS011;74768;51.152;6.196;2024-03-17T04:56:24;16.23;;;8.30;;
84527;SDS011;74768;51.152;6.196;2024-03-17T04:58:43;14.63;;;9.13;;
84527;SDS011;74768;51.152;6.196;2024-03-17T05:01:08;19.20;;;9.90;;
84527;SDS011;74768;51.152;6.196;2024-03-17T05:03:34;16.58;;;9.13;;
84527;SDS011;74768;51.152;6.196;2024-03-17T05:06:01;17.52;;;9.60;;
84527;SDS011;74768;51.152;6.196;2024-03-17T05:08:30;16.77;;;9.13;;
84527;SDS011;74768;51.152;6.196;2024-03-17T05:10:57;16.58;;;8.52;;
84527;SDS011;74768;51.152;6.196;2024-03-17T05:13:24;18.65;;;9.30;;
84527;SDS011;74768;51.152;6.196;2024-03-17T05:15:51;17.13;;;10.30;;
84527;SDS011;74768;51.152;6.196;2024-03-17T05:18:16;17.97;;;8.77;;
84527;SDS011;74768;51.152;6.196;2024-03-17T05:20:41;15.30;;;8.97;;
84527;SDS011;74768;51.152;6.196;2024-03-17T05:23:07;13.53;;;7.77;;
84527;SDS011;74768;51.152;6.196;2024-03-17T05:25:32;15.10;;;9.43;;
84527;SDS011;74768;51.152;6.196;2024-03-17T05:28:01;16.38;;;10.13;;
84527;SDS011;74768;51.152;6.196;2024-03-17T05:30:27;16.77;;;9.18;;
84527;SDS011;74768;51.152;6.196;2024-03-17T05:32:52;15.33;;;8.33;;
84527;SDS011;74768;51.152;6.196;2024-03-17T05:35:17;15.90;;;8.43;;
84527;SDS011;74768;51.152;6.196;2024-03-17T05:37:43;13.73;;;7.77;;
84527;SDS011;74768;51.152;6.196;2024-03-17T05:40:09;15.47;;;8.83;;
84527;SDS011;74768;51.152;6.196;2024-03-17T05:42:37;16.42;;;9.10;;
84527;SDS011;74768;51.152;6.196;2024-03-17T05:45:03;17.73;;;10.45;;
84527;SDS011;74768;51.152;6.196;2024-03-17T05:47:28;18.35;;;9.50;;
84527;SDS011;74768;51.152;6.196;2024-03-17T05:49:54;16.08;;;9.38;;
84527;SDS011;74768;51.152;6.196;2024-03-17T05:52:20;13.63;;;8.05;;
84527;SDS011;74768;51.152;6.196;2024-03-17T05:54:46;16.90;;;10.05;;
84527;SDS011;74768;51.152;6.196;2024-03-17T05:57:12;24.77;;;12.25;;
84527;SDS011;74768;51.152;6.196;2024-03-17T05:59:38;23.90;;;11.43;;
84527;SDS011;74768;51.152;6.196;2024-03-17T06:02:04;24.08;;;11.50;;
84527;SDS011;74768;51.152;6.196;2024-03-17T06:04:29;23.27;;;11.15;;
84527;SDS011;74768;51.152;6.196;2024-03-17T06:06:55;23.77;;;11.80;;
84527;SDS011;74768;51.152;6.196;2024-03-17T06:09:20;20.98;;;11.93;;
84527;SDS011;74768;51.152;6.196;2024-03-17T06:11:46;26.00;;;12.80;;
84527;SDS011;74768;51.152;6.196;2024-03-17T06:14:11;26.45;;;13.30;;
84527;SDS011;74768;51.152;6.196;2024-03-17T06:16:38;24.92;;;12.35;;
84527;SDS011;74768;51.152;6.196;2024-03-17T06:19:03;23.50;;;13.07;;
84527;SDS011;74768;51.152;6.196;2024-03-17T06:21:28;23.67;;;10.77;;
84527;SDS011;74768;51.152;6.196;2024-03-17T06:23:54;22.08;;;10.88;;
84527;SDS011;74768;51.152;6.196;2024-03-17T06:26:19;16.43;;;9.67;;
84527;SDS011;74768;51.152;6.196;2024-03-17T06:28:45;13.18;;;8.77;;
84527;SDS011;74768;51.152;6.196;2024-03-17T06:31:11;15.93;;;8.80;;
84527;SDS011;74768;51.152;6.196;2024-03-17T06:33:36;10.97;;;7.33;;
84527;SDS011;74768;51.152;6.196;2024-03-17T06:36:02;10.05;;;6.40;;
84527;SDS011;74768;51.152;6.196;2024-03-17T06:38:32;12.07;;;7.22;;
84527;SDS011;74768;51.152;6.196;2024-03-17T06:40:57;11.18;;;6.72;;
84527;SDS011;74768;51.152;6.196;2024-03-17T06:43:22;13.73;;;7.97;;
84527;SDS011;74768;51.152;6.196;2024-03-17T06:45:57;14.52;;;7.45;;
84527;SDS011;74768;51.152;6.196;2024-03-17T06:48:24;11.02;;;7.03;;
84527;SDS011;74768;51.152;6.196;2024-03-17T06:50:50;12.07;;;7.32;;
84527;SDS011;74768;51.152;6.196;2024-03-17T06:53:17;11.98;;;6.70;;
84527;SDS011;74768;51.152;6.196;2024-03-17T06:55:44;11.30;;;6.75;;
84527;SDS011;74768;51.152;6.196;2024-03-17T06:58:11;11.57;;;7.03;;
84527;SDS011;74768;51.152;6.196;2024-03-17T07:00:36;11.85;;;6.70;;
84527;SDS011;74768;51.152;6.196;2024-03-17T07:03:01;12.60;;;6.13;;
84527;SDS011;74768;51.152;6.196;2024-03-17T07:05:28;10.30;;;6.43;;
84527;SDS011;74768;51.152;6.196;2024-03-17T07:07:55;11.15;;;6.55;;
84527;SDS011;74768;51.152;6.196;2024-03-17T07:10:20;10.35;;;6.75;;
84527;SDS011;74768;51.152;6.196;2024-03-17T07:12:45;9.50;;;6.40;;
84527;SDS011;74768;51.152;6.196;2024-03-17T07:15:11;10.50;;;7.13;;
84527;SDS011;74768;51.152;6.196;2024-03-17T07:17:36;10.48;;;6.97;;
84527;SDS011;74768;51.152;6.196;2024-03-17T07:20:01;9.88;;;6.70;;
84527;SDS011;74768;51.152;6.196;2024-03-17T07:22:28;9.65;;;5.40;;
84527;SDS011;74768;51.152;6.196;2024-03-17T07:24:54;11.18;;;6.60;;
84527;SDS011;74768;51.152;6.196;2024-03-17T07:27:25;10.80;;;7.03;;
84527;SDS011;74768;51.152;6.196;2024-03-17T07:29:50;9.23;;;5.38;;
84527;SDS011;74768;51.152;6.196;2024-03-17T07:32:15;9.90;;;6.03;;
84527;SDS011;74768;51.152;6.196;2024-03-17T07:34:41;9.00;;;7.13;;
84527;SDS011;74768;51.152;6.196;2024-03-17T07:37:06;8.87;;;6.10;;
84527;SDS011;74768;51.152;6.196;2024-03-17T07:39:31;11.43;;;5.73;;
84527;SDS011;74768;51.152;6.196;2024-03-17T07:41:58;5.03;;;4.25;;
84527;SDS011;74768;51.152;6.196;2024-03-17T07:44:24;87.53;;;35.13;;
84527;SDS011;74768;51.152;6.196;2024-03-17T07:46:49;25.58;;;9.93;;
84527;SDS011;74768;51.152;6.196;2024-03-17T07:49:15;66.15;;;23.70;;
84527;SDS011;74768;51.152;6.196;2024-03-17T07:51:41;11.65;;;6.80;;
84527;SDS011;74768;51.152;6.196;2024-03-17T07:54:08;13.10;;;6.80;;
84527;SDS011;74768;51.152;6.196;2024-03-17T07:56:34;7.72;;;5.07;;
84527;SDS011;74768;51.152;6.196;2024-03-17T07:58:59;10.05;;;5.22;;
84527;SDS011;74768;51.152;6.196;2024-03-17T08:01:24;8.50;;;5.40;;
84527;SDS011;74768;51.152;6.196;2024-03-17T08:03:50;8.47;;;5.10;;
84527;SDS011;74768;51.152;6.196;2024-03-17T08:06:20;11.20;;;5.82;;
84527;SDS011;74768;51.152;6.196;2024-03-17T08:08:46;8.48;;;5.88;;
84527;SDS011;74768;51.152;6.196;2024-03-17T08:11:12;8.52;;;5.32;;
84527;SDS011;74768;51.152;6.196;2024-03-17T08:13:38;6.00;;;4.63;;
84527;SDS011;74768;51.152;6.196;2024-03-17T08:16:04;6.68;;;4.13;;
84527;SDS011;74768;51.152;6.196;2024-03-17T08:18:31;5.13;;;3.78;;
84527;SDS011;74768;51.152;6.196;2024-03-17T08:21:02;8.93;;;4.80;;
84527;SDS011;74768;51.152;6.196;2024-03-17T08:23:32;7.55;;;4.68;;
84527;SDS011;74768;51.152;6.196;2024-03-17T08:26:00;6.70;;;4.20;;
84527;SDS011;74768;51.152;6.196;2024-03-17T08:28:26;7.07;;;4.55;;
84527;SDS011;74768;51.152;6.196;2024-03-17T08:30:53;7.95;;;4.93;;
84527;SDS011;74768;51.152;6.196;2024-03-17T08:33:25;6.40;;;4.88;;
84527;SDS011;74768;51.152;6.196;2024-03-17T08:36:01;7.38;;;5.10;;
84527;SDS011;74768;51.152;6.196;2024-03-17T08:38:28;8.18;;;4.32;;
84527;SDS011;74768;51.152;6.196;2024-03-17T08:40:56;7.72;;;3.83;;
84527;SDS011;74768;51.152;6.196;2024-03-17T08:43:23;5.43;;;4.13;;
84527;SDS011;74768;51.152;6.196;2024-03-17T08:45:58;6.25;;;3.90;;
84527;SDS011;74768;51.152;6.196;2024-03-17T08:48:27;7.07;;;4.20;;
84527;SDS011;74768;51.152;6.196;2024-03-17T08:50:54;7.63;;;5.20;;
84527;SDS011;74768;51.152;6.196;2024-03-17T08:53:20;7.03;;;5.03;;
84527;SDS011;74768;51.152;6.196;2024-03-17T08:55:45;5.28;;;3.88;;
84527;SDS011;74768;51.152;6.196;2024-03-17T08:58:11;8.65;;;5.03;;
84527;SDS011;74768;51.152;6.196;2024-03-17T09:00:36;8.55;;;4.00;;
84527;SDS011;74768;51.152;6.196;2024-03-17T09:03:02;8.07;;;5.20;;
84527;SDS011;74768;51.152;6.196;2024-03-17T09:05:28;6.82;;;4.50;;
84527;SDS011;74768;51.152;6.196;2024-03-17T09:07:53;7.83;;;4.67;;
84527;SDS011;74768;51.152;6.196;2024-03-17T09:10:20;5.57;;;4.13;;
84527;SDS011;74768;51.152;6.196;2024-03-17T09:12:45;8.60;;;4.75;;
84527;SDS011;74768;51.152;6.196;2024-03-17T09:15:12;6.53;;;4.07;;
84527;SDS011;74768;51.152;6.196;2024-03-17T09:17:38;10.00;;;4.55;;
84527;SDS011;74768;51.152;6.196;2024-03-17T09:20:04;7.63;;;4.45;;
84527;SDS011;74768;51.152;6.196;2024-03-17T09:22:30;4.88;;;3.70;;
84527;SDS011;74768;51.152;6.196;2024-03-17T09:24:55;5.67;;;3.87;;
84527;SDS011;74768;51.152;6.196;2024-03-17T09:27:21;5.88;;;4.40;;
84527;SDS011;74768;51.152;6.196;2024-03-17T09:29:47;6.40;;;3.75;;
84527;SDS011;74768;51.152;6.196;2024-03-17T09:32:13;8.27;;;4.22;;
84527;SDS011;74768;51.152;6.196;2024-03-17T09:34:43;9.18;;;4.45;;
84527;SDS011;74768;51.152;6.196;2024-03-17T09:37:13;5.63;;;3.97;;
84527;SDS011;74768;51.152;6.196;2024-03-17T09:39:38;7.15;;;4.18;;
84527;SDS011;74768;51.152;6.196;2024-03-17T09:42:04;5.90;;;4.30;;
84527;SDS011;74768;51.152;6.196;2024-03-17T09:44:31;4.63;;;3.47;;
84527;SDS011;74768;51.152;6.196;2024-03-17T09:46:59;8.68;;;4.25;;
84527;SDS011;74768;51.152;6.196;2024-03-17T09:49:26;10.85;;;4.45;;
84527;SDS011;74768;51.152;6.196;2024-03-17T09:51:51;6.40;;;4.15;;
84527;SDS011;74768;51.152;6.196;2024-03-17T09:54:22;7.25;;;3.95;;
84527;SDS011;74768;51.152;6.196;2024-03-17T09:56:48;5.53;;;3.90;;
84527;SDS011;74768;51.152;6.196;2024-03-17T09:59:13;5.82;;;3.90;;
84527;SDS011;74768;51.152;6.196;2024-03-17T10:01:39;7.10;;;4.15;;
84527;SDS011;74768;51.152;6.196;2024-03-17T10:04:04;6.67;;;3.43;;
84527;SDS011;74768;51.152;6.196;2024-03-17T10:06:30;7.18;;;4.38;;
84527;SDS011;74768;51.152;6.196;2024-03-17T10:08:57;6.32;;;3.72;;
84527;SDS011;74768;51.152;6.196;2024-03-17T10:11:24;7.28;;;4.18;;
84527;SDS011;74768;51.152;6.196;2024-03-17T10:14:00;7.20;;;4.57;;
84527;SDS011;74768;51.152;6.196;2024-03-17T10:16:26;5.47;;;3.85;;
84527;SDS011;74768;51.152;6.196;2024-03-17T10:19:10;7.97;;;4.55;;
84527;SDS011;74768;51.152;6.196;2024-03-17T10:21:36;6.30;;;4.18;;
84527;SDS011;74768;51.152;6.196;2024-03-17T10:24:06;5.93;;;4.10;;
84527;SDS011;74768;51.152;6.196;2024-03-17T10:26:48;6.20;;;4.55;;
84527;SDS011;74768;51.152;6.196;2024-03-17T10:29:36;5.47;;;3.90;;
84527;SDS011;74768;51.152;6.196;2024-03-17T10:32:19;8.80;;;5.20;;
84527;SDS011;74768;51.152;6.196;2024-03-17T10:34:49;8.30;;;3.97;;
84527;SDS011;74768;51.152;6.196;2024-03-17T10:37:15;7.20;;;4.30;;
84527;SDS011;74768;51.152;6.196;2024-03-17T10:39:44;6.63;;;4.07;;
84527;SDS011;74768;51.152;6.196;2024-03-17T10:42:11;6.10;;;4.00;;
84527;SDS011;74768;51.152;6.196;2024-03-17T10:44:39;7.00;;;4.55;;
84527;SDS011;74768;51.152;6.196;2024-03-17T10:47:06;6.28;;;3.75;;
84527;SDS011;74768;51.152;6.196;2024-03-17T10:49:35;5.20;;;3.90;;
84527;SDS011;74768;51.152;6.196;2024-03-17T10:52:03;8.35;;;4.53;;
84527;SDS011;74768;51.152;6.196;2024-03-17T10:54:30;6.03;;;3.80;;
84527;SDS011;74768;51.152;6.196;2024-03-17T10:56:57;7.63;;;4.20;;
84527;SDS011;74768;51.152;6.196;2024-03-17T10:59:40;6.82;;;4.15;;
84527;SDS011;74768;51.152;6.196;2024-03-17T11:02:49;6.40;;;4.38;;
84527;SDS011;74768;51.152;6.196;2024-03-17T11:05:05;7.57;;;4.40;;
84527;SDS011;74768;51.152;6.196;2024-03-17T11:07:37;9.85;;;4.60;;
84527;SDS011;74768;51.152;6.196;2024-03-17T11:10:08;4.72;;;4.13;;
84527;SDS011;74768;51.152;6.196;2024-03-17T11:20:39;11.45;;;4.53;;
84527;SDS011;74768;51.152;6.196;2024-03-17T11:23:05;6.00;;;4.30;;
84527;SDS011;74768;51.152;6.196;2024-03-17T11:46:46;7.53;;;4.20;;
84527;SDS011;74768;51.152;6.196;2024-03-17T11:49:20;6.25;;;3.75;;
84527;SDS011;74768;51.152;6.196;2024-03-17T11:51:46;5.35;;;4.07;;
84527;SDS011;74768;51.152;6.196;2024-03-17T11:54:15;6.07;;;4.32;;
84527;SDS011;74768;51.152;6.196;2024-03-17T11:56:44;7.25;;;4.13;;
84527;SDS011;74768;51.152;6.196;2024-03-17T11:59:10;6.95;;;4.82;;
84527;SDS011;74768;51.152;6.196;2024-03-17T12:01:36;7.97;;;4.43;;
84527;SDS011;74768;51.152;6.196;2024-03-17T12:04:02;5.88;;;4.15;;
84527;SDS011;74768;51.152;6.196;2024-03-17T12:06:30;5.93;;;4.97;;
84527;SDS011;74768;51.152;6.196;2024-03-17T12:09:10;6.22;;;3.95;;
84527;SDS011;74768;51.152;6.196;2024-03-17T12:11:42;9.27;;;4.18;;
84527;SDS011;74768;51.152;6.196;2024-03-17T12:14:17;6.53;;;4.95;;
84527;SDS011;74768;51.152;6.196;2024-03-17T12:16:50;7.10;;;4.85;;
84527;SDS011;74768;51.152;6.196;2024-03-17T12:19:19;8.15;;;4.70;;
84527;SDS011;74768;51.152;6.196;2024-03-17T12:21:45;8.32;;;4.68;;
84527;SDS011;74768;51.152;6.196;2024-03-17T12:24:16;10.23;;;4.88;;
84527;SDS011;74768;51.152;6.196;2024-03-17T12:26:43;5.78;;;4.32;;
84527;SDS011;74768;51.152;6.196;2024-03-17T12:29:25;10.32;;;4.20;;
84527;SDS011;74768;51.152;6.196;2024-03-17T12:31:52;7.18;;;4.75;;
84527;SDS011;74768;51.152;6.196;2024-03-17T12:34:19;5.90;;;4.72;;
84527;SDS011;74768;51.152;6.196;2024-03-17T12:36:45;6.45;;;4.80;;
84527;SDS011;74768;51.152;6.196;2024-03-17T12:39:30;6.45;;;4.28;;
84527;SDS011;74768;51.152;6.196;2024-03-17T12:42:04;6.35;;;3.88;;
84527;SDS011;74768;51.152;6.196;2024-03-17T12:47:04;6.90;;;4.18;;
84527;SDS011;74768;51.152;6.196;2024-03-17T12:49:31;6.93;;;4.43;;
84527;SDS011;74768;51.152;6.196;2024-03-17T12:51:59;7.43;;;4.93;;
84527;SDS011;74768;51.152;6.196;2024-03-17T12:54:26;6.95;;;4.10;;
84527;SDS011;74768;51.152;6.196;2024-03-17T12:57:03;8.80;;;4.30;;
84527;SDS011;74768;51.152;6.196;2024-03-17T12:59:48;6.53;;;4.82;;
84527;SDS011;74768;51.152;6.196;2024-03-17T13:02:32;6.85;;;4.40;;
84527;SDS011;74768;51.152;6.196;2024-03-17T13:07:32;7.05;;;4.07;;
84527;SDS011;74768;51.152;6.196;2024-03-17T13:09:58;7.03;;;4.27;;
84527;SDS011;74768;51.152;6.196;2024-03-17T13:12:23;8.83;;;5.60;;
84527;SDS011;74768;51.152;6.196;2024-03-17T13:14:48;7.00;;;3.93;;
84527;SDS011;74768;51.152;6.196;2024-03-17T13:17:14;8.63;;;4.70;;
84527;SDS011;74768;51.152;6.196;2024-03-17T13:19:46;10.20;;;4.68;;
84527;SDS011;74768;51.152;6.196;2024-03-17T13:22:12;6.45;;;4.65;;
84527;SDS011;74768;51.152;6.196;2024-03-17T13:24:38;7.63;;;5.45;;
84527;SDS011;74768;51.152;6.196;2024-03-17T13:27:03;7.38;;;5.00;;
84527;SDS011;74768;51.152;6.196;2024-03-17T13:29:31;7.35;;;4.90;;
84527;SDS011;74768;51.152;6.196;2024-03-17T13:32:01;8.15;;;4.57;;
84527;SDS011;74768;51.152;6.196;2024-03-17T13:34:27;7.20;;;4.57;;
84527;SDS011;74768;51.152;6.196;2024-03-17T13:36:53;6.65;;;4.65;;
84527;SDS011;74768;51.152;6.196;2024-03-17T13:39:19;9.65;;;5.32;;
84527;SDS011;74768;51.152;6.196;2024-03-17T13:41:46;10.82;;;5.70;;
84527;SDS011;74768;51.152;6.196;2024-03-17T13:44:12;8.27;;;5.03;;
84527;SDS011;74768;51.152;6.196;2024-03-17T13:46:37;7.47;;;4.53;;
84527;SDS011;74768;51.152;6.196;2024-03-17T13:49:08;9.50;;;4.60;;
84527;SDS011;74768;51.152;6.196;2024-03-17T13:51:34;7.80;;;4.85;;
84527;SDS011;74768;51.152;6.196;2024-03-17T13:53:59;8.20;;;5.00;;
84527;SDS011;74768;51.152;6.196;2024-03-17T13:56:25;11.02;;;4.80;;
84527;SDS011;74768;51.152;6.196;2024-03-17T13:58:50;7.07;;;4.63;;
84527;SDS011;74768;51.152;6.196;2024-03-17T14:01:16;10.25;;;4.13;;
84527;SDS011;74768;51.152;6.196;2024-03-17T14:03:41;8.18;;;4.63;;
84527;SDS011;74768;51.152;6.196;2024-03-17T14:06:08;5.78;;;4.32;;
84527;SDS011;74768;51.152;6.196;2024-03-17T14:08:34;8.60;;;5.18;;
84527;SDS011;74768;51.152;6.196;2024-03-17T14:10:59;8.40;;;4.63;;
84527;SDS011;74768;51.152;6.196;2024-03-17T14:13:25;6.40;;;4.05;;
84527;SDS011;74768;51.152;6.196;2024-03-17T14:15:51;10.57;;;3.92;;
84527;SDS011;74768;51.152;6.196;2024-03-17T14:18:16;8.27;;;4.80;;
84527;SDS011;74768;51.152;6.196;2024-03-17T14:20:41;8.77;;;4.93;;
84527;SDS011;74768;51.152;6.196;2024-03-17T14:23:06;6.53;;;4.77;;
84527;SDS011;74768;51.152;6.196;2024-03-17T14:25:32;8.70;;;4.68;;
84527;SDS011;74768;51.152;6.196;2024-03-17T14:27:57;8.10;;;4.68;;
84527;SDS011;74768;51.152;6.196;2024-03-17T14:30:22;6.67;;;4.63;;
84527;SDS011;74768;51.152;6.196;2024-03-17T14:32:49;8.73;;;4.32;;
84527;SDS011;74768;51.152;6.196;2024-03-17T14:35:15;5.05;;;3.83;;
84527;SDS011;74768;51.152;6.196;2024-03-17T14:37:44;6.13;;;3.80;;
84527;SDS011;74768;51.152;6.196;2024-03-17T14:40:12;7.53;;;4.15;;
84527;SDS011;74768;51.152;6.196;2024-03-17T14:42:53;5.40;;;4.10;;
84527;SDS011;74768;51.152;6.196;2024-03-17T14:45:20;6.38;;;3.92;;
84527;SDS011;74768;51.152;6.196;2024-03-17T14:47:48;8.25;;;4.38;;
84527;SDS011;74768;51.152;6.196;2024-03-17T14:50:14;6.40;;;4.35;;
84527;SDS011;74768;51.152;6.196;2024-03-17T14:52:41;7.07;;;4.20;;
84527;SDS011;74768;51.152;6.196;2024-03-17T14:55:10;9.93;;;4.32;;
84527;SDS011;74768;51.152;6.196;2024-03-17T14:57:39;5.07;;;4.05;;
84527;SDS011;74768;51.152;6.196;2024-03-17T15:00:06;10.68;;;4.95;;
84527;SDS011;74768;51.152;6.196;2024-03-17T15:02:41;5.95;;;4.20;;
84527;SDS011;74768;51.152;6.196;2024-03-17T15:05:11;6.75;;;4.13;;
84527;SDS011;74768;51.152;6.196;2024-03-17T15:07:37;6.25;;;4.05;;
84527;SDS011;74768;51.152;6.196;2024-03-17T15:10:03;7.88;;;4.38;;
84527;SDS011;74768;51.152;6.196;2024-03-17T15:12:29;6.75;;;4.68;;